createdAt,value
2017-05-05T00:01:00.000Z,19.17
2017-05-05T00:10:59.000Z,19.14
2017-05-05T00:30:59.000Z,19.11
2017-05-05T00:50:59.000Z,19.06
2017-05-05T01:00:59.000Z,19.05
2017-05-05T01:11:00.000Z,19.01
2017-05-05T01:31:00.000Z,18.99
2017-05-05T01:51:00.000Z,18.95
2017-05-05T02:01:00.000Z,18.93
2017-05-05T02:11:00.000Z,18.92
2017-05-05T02:31:00.000Z,18.89
2017-05-05T02:51:00.000Z,18.87
2017-05-05T03:01:00.000Z,18.84
2017-05-05T03:11:00.000Z,18.83
2017-05-05T03:31:00.000Z,18.78
2017-05-05T03:51:00.000Z,18.75
2017-05-05T04:01:00.000Z,18.73
2017-05-05T04:11:00.000Z,18.7
2017-05-05T04:31:00.000Z,18.69
2017-05-05T04:51:00.000Z,18.67
2017-05-05T05:01:00.000Z,18.66
2017-05-05T05:11:00.000Z,18.66
2017-05-05T05:31:00.000Z,18.64
2017-05-05T05:51:00.000Z,18.65
2017-05-05T06:01:00.000Z,18.67
2017-05-05T06:11:00.000Z,18.66
2017-05-05T06:31:00.000Z,18.62
2017-05-05T06:51:00.000Z,18.65
2017-05-05T07:01:00.000Z,18.63
2017-05-05T07:11:00.000Z,18.65
2017-05-05T07:31:00.000Z,18.74
2017-05-05T07:51:00.000Z,18.71
2017-05-05T08:01:00.000Z,18.68
2017-05-05T08:11:00.000Z,18.68
2017-05-05T08:31:00.000Z,18.7
2017-05-05T08:51:00.000Z,18.73
2017-05-05T09:11:00.000Z,18.84
2017-05-05T09:21:00.000Z,18.87
2017-05-05T09:31:00.000Z,18.9
2017-05-05T09:51:00.000Z,18.91
2017-05-05T10:11:01.000Z,18.9
2017-05-05T10:21:01.000Z,18.93
2017-05-05T10:31:01.000Z,18.94
2017-05-05T10:51:01.000Z,18.96
2017-05-05T11:11:01.000Z,19.17
2017-05-05T11:21:01.000Z,19.14
2017-05-05T11:31:01.000Z,19.11
2017-05-05T11:51:01.000Z,19.14
2017-05-05T12:11:01.000Z,19.17
2017-05-05T12:21:01.000Z,19.21
2017-05-05T12:31:01.000Z,19.22
2017-05-05T12:51:01.000Z,19.26
2017-05-05T13:11:01.000Z,19.26
2017-05-05T13:21:01.000Z,19.23
2017-05-05T13:31:01.000Z,19.2
2017-05-05T13:51:01.000Z,19.19
2017-05-05T14:11:01.000Z,19.18
2017-05-05T14:21:01.000Z,19.16
2017-05-05T14:31:01.000Z,19.15
2017-05-05T14:51:01.000Z,19.15
2017-05-05T15:11:01.000Z,19.16
2017-05-05T15:21:04.000Z,19.16
2017-05-05T15:31:01.000Z,19.2
2017-05-05T15:51:01.000Z,19.25
2017-05-05T16:11:01.000Z,19.35
2017-05-05T16:21:01.000Z,19.35
2017-05-05T16:31:01.000Z,19.37
2017-05-05T16:51:01.000Z,19.33
2017-05-05T17:11:01.000Z,19.31
2017-05-05T17:21:01.000Z,19.36
2017-05-05T17:31:01.000Z,19.39
2017-05-05T17:51:01.000Z,19.37
2017-05-05T18:11:01.000Z,19.36
2017-05-05T18:31:01.000Z,19.36
2017-05-05T18:41:01.000Z,19.34
2017-05-05T18:51:03.000Z,19.32
2017-05-05T19:11:02.000Z,19.33
2017-05-05T19:31:02.000Z,19.38
2017-05-05T19:41:02.000Z,19.37
2017-05-05T19:51:02.000Z,19.35
2017-05-05T20:11:02.000Z,19.33
2017-05-05T20:31:02.000Z,19.33
2017-05-05T20:41:02.000Z,19.34
2017-05-05T20:51:02.000Z,19.27
2017-05-05T21:11:02.000Z,19.15
2017-05-05T21:31:02.000Z,19.1
2017-05-05T21:41:02.000Z,19.07
2017-05-05T21:51:02.000Z,19.03
2017-05-05T22:11:02.000Z,18.95
2017-05-05T22:31:02.000Z,18.86
2017-05-05T22:41:02.000Z,18.85
2017-05-05T22:51:02.000Z,18.78
2017-05-05T23:11:02.000Z,18.73
2017-05-05T23:31:02.000Z,18.66
2017-05-05T23:41:02.000Z,18.61
2017-05-05T23:51:02.000Z,18.58
